sensor_id;sensor_type;location;lat;lon;timestamp;temperature;humidity
14993;DHT22;7592;51.088;13.732;2024-01-16T00:03:50;1.40;99.90
14993;DHT22;7592;51.088;13.732;2024-01-16T00:08:43;1.40;99.90
14993;DHT22;7592;51.088;13.732;2024-01-16T00:13:36;1.40;99.90
14993;DHT22;7592;51.088;13.732;2024-01-16T00:18:28;1.40;99.90
14993;DHT22;7592;51.088;13.732;2024-01-16T00:23:20;1.40;99.90
14993;DHT22;7592;51.088;13.732;2024-01-16T00:28:14;1.50;99.90
14993;DHT22;7592;51.088;13.732;2024-01-16T00:33:07;1.50;99.90
14993;DHT22;7592;51.088;13.732;2024-01-16T00:37:59;1.50;99.90
14993;DHT22;7592;51.088;13.732;2024-01-16T00:42:52;1.40;99.90
14993;DHT22;7592;51.088;13.732;2024-01-16T00:47:44;1.40;99.90
14993;DHT22;7592;51.088;13.732;2024-01-16T00:52:37;1.40;99.90
14993;DHT22;7592;51.088;13.732;2024-01-16T00:57:29;1.40;99.90
14993;DHT22;7592;51.088;13.732;2024-01-16T01:02:22;1.50;99.90
14993;DHT22;7592;51.088;13.732;2024-01-16T01:07:15;1.50;99.90
14993;DHT22;7592;51.088;13.732;2024-01-16T01:12:07;1.50;99.90
14993;DHT22;7592;51.088;13.732;2024-01-16T01:17:00;1.50;99.90
14993;DHT22;7592;51.088;13.732;2024-01-16T01:21:52;1.50;99.90
14993;DHT22;7592;51.088;13.732;2024-01-16T01:26:46;1.60;99.90
14993;DHT22;7592;51.088;13.732;2024-01-16T01:31:38;1.60;99.90
14993;DHT22;7592;51.088;13.732;2024-01-16T01:36:31;1.70;99.90
14993;DHT22;7592;51.088;13.732;2024-01-16T01:41:23;1.70;99.90
14993;DHT22;7592;51.088;13.732;2024-01-16T01:46:19;1.60;99.90
14993;DHT22;7592;51.088;13.732;2024-01-16T01:51:13;1.60;99.90
14993;DHT22;7592;51.088;13.732;2024-01-16T01:56:08;1.50;99.90
14993;DHT22;7592;51.088;13.732;2024-01-16T02:01:02;1.40;99.90
14993;DHT22;7592;51.088;13.732;2024-01-16T02:12:33;1.40;99.90
14993;DHT22;7592;51.088;13.732;2024-01-16T02:17:26;1.50;99.90
14993;DHT22;7592;51.088;13.732;2024-01-16T02:22:20;1.50;99.90
14993;DHT22;7592;51.088;13.732;2024-01-16T02:27:14;1.60;99.90
14993;DHT22;7592;51.088;13.732;2024-01-16T02:32:07;1.60;99.90
14993;DHT22;7592;51.088;13.732;2024-01-16T02:37:00;1.60;99.90
14993;DHT22;7592;51.088;13.732;2024-01-16T02:41:52;1.70;99.90
14993;DHT22;7592;51.088;13.732;2024-01-16T02:46:44;1.70;99.90
14993;DHT22;7592;51.088;13.732;2024-01-16T02:51:37;1.70;99.90
14993;DHT22;7592;51.088;13.732;2024-01-16T02:56:30;1.70;99.90
14993;DHT22;7592;51.088;13.732;2024-01-16T03:01:22;1.60;99.90
14993;DHT22;7592;51.088;13.732;2024-01-16T03:06:24;1.60;99.90
14993;DHT22;7592;51.088;13.732;2024-01-16T03:11:17;1.60;99.90
14993;DHT22;7592;51.088;13.732;2024-01-16T03:16:13;1.60;99.90
14993;DHT22;7592;51.088;13.732;2024-01-16T03:21:06;1.60;99.90
14993;DHT22;7592;51.088;13.732;2024-01-16T03:25:58;1.70;99.90
14993;DHT22;7592;51.088;13.732;2024-01-16T03:30:50;1.70;99.90
14993;DHT22;7592;51.088;13.732;2024-01-16T03:35:43;1.80;99.90
14993;DHT22;7592;51.088;13.732;2024-01-16T03:40:35;1.80;99.90
14993;DHT22;7592;51.088;13.732;2024-01-16T03:45:29;1.80;99.90
14993;DHT22;7592;51.088;13.732;2024-01-16T03:50:21;1.90;99.90
14993;DHT22;7592;51.088;13.732;2024-01-16T03:55:14;2.00;99.90
14993;DHT22;7592;51.088;13.732;2024-01-16T04:00:07;2.00;99.90
14993;DHT22;7592;51.088;13.732;2024-01-16T04:05:00;2.00;99.90
14993;DHT22;7592;51.088;13.732;2024-01-16T04:09:54;2.00;99.90
14993;DHT22;7592;51.088;13.732;2024-01-16T04:14:46;1.90;99.90
14993;DHT22;7592;51.088;13.732;2024-01-16T04:19:39;1.90;99.90
14993;DHT22;7592;51.088;13.732;2024-01-16T04:24:31;1.90;99.90
14993;DHT22;7592;51.088;13.732;2024-01-16T04:29:24;1.90;99.90
14993;DHT22;7592;51.088;13.732;2024-01-16T04:34:16;1.90;99.90
14993;DHT22;7592;51.088;13.732;2024-01-16T04:39:08;1.80;99.90
14993;DHT22;7592;51.088;13.732;2024-01-16T04:44:01;1.80;99.90
14993;DHT22;7592;51.088;13.732;2024-01-16T04:48:53;1.80;99.90
14993;DHT22;7592;51.088;13.732;2024-01-16T04:53:46;1.70;99.90
14993;DHT22;7592;51.088;13.732;2024-01-16T04:58:38;1.70;99.90
14993;DHT22;7592;51.088;13.732;2024-01-16T05:03:31;1.70;99.90
14993;DHT22;7592;51.088;13.732;2024-01-16T05:08:23;1.80;99.90
14993;DHT22;7592;51.088;13.732;2024-01-16T05:13:16;2.00;99.90
14993;DHT22;7592;51.088;13.732;2024-01-16T05:18:09;2.00;99.90
14993;DHT22;7592;51.088;13.732;2024-01-16T05:23:02;1.90;99.90
14993;DHT22;7592;51.088;13.732;2024-01-16T05:27:54;2.00;99.90
14993;DHT22;7592;51.088;13.732;2024-01-16T05:32:46;2.10;99.90
14993;DHT22;7592;51.088;13.732;2024-01-16T05:37:39;2.10;99.90
14993;DHT22;7592;51.088;13.732;2024-01-16T05:42:31;2.10;99.90
14993;DHT22;7592;51.088;13.732;2024-01-16T05:47:23;2.00;99.90
14993;DHT22;7592;51.088;13.732;2024-01-16T05:52:19;2.10;99.90
14993;DHT22;7592;51.088;13.732;2024-01-16T05:57:12;2.20;99.90
14993;DHT22;7592;51.088;13.732;2024-01-16T06:02:04;2.10;99.90
14993;DHT22;7592;51.088;13.732;2024-01-16T06:06:56;2.20;99.90
14993;DHT22;7592;51.088;13.732;2024-01-16T06:11:48;2.20;99.90
14993;DHT22;7592;51.088;13.732;2024-01-16T06:16:40;2.20;99.90
14993;DHT22;7592;51.088;13.732;2024-01-16T06:21:32;2.20;99.90
14993;DHT22;7592;51.088;13.732;2024-01-16T06:26:25;2.20;99.90
14993;DHT22;7592;51.088;13.732;2024-01-16T06:31:17;2.10;99.90
14993;DHT22;7592;51.088;13.732;2024-01-16T06:36:10;2.10;99.90
14993;DHT22;7592;51.088;13.732;2024-01-16T06:41:02;2.00;99.90
14993;DHT22;7592;51.088;13.732;2024-01-16T06:45:54;2.10;99.90
14993;DHT22;7592;51.088;13.732;2024-01-16T06:50:46;2.00;99.90
14993;DHT22;7592;51.088;13.732;2024-01-16T06:55:38;2.00;99.90
14993;DHT22;7592;51.088;13.732;2024-01-16T07:00:31;2.00;99.90
14993;DHT22;7592;51.088;13.732;2024-01-16T07:05:23;1.90;99.90
14993;DHT22;7592;51.088;13.732;2024-01-16T07:10:15;1.80;99.90
14993;DHT22;7592;51.088;13.732;2024-01-16T07:15:14;1.70;99.90
14993;DHT22;7592;51.088;13.732;2024-01-16T07:20:07;1.70;99.90
14993;DHT22;7592;51.088;13.732;2024-01-16T07:24:59;1.60;99.90
14993;DHT22;7592;51.088;13.732;2024-01-16T07:29:52;1.70;99.90
14993;DHT22;7592;51.088;13.732;2024-01-16T07:34:44;1.80;99.90
14993;DHT22;7592;51.088;13.732;2024-01-16T07:39:36;1.90;99.90
14993;DHT22;7592;51.088;13.732;2024-01-16T07:44:28;1.90;99.90
14993;DHT22;7592;51.088;13.732;2024-01-16T07:49:20;1.90;99.90
14993;DHT22;7592;51.088;13.732;2024-01-16T07:54:13;2.00;99.90
14993;DHT22;7592;51.088;13.732;2024-01-16T07:59:05;2.20;99.90
14993;DHT22;7592;51.088;13.732;2024-01-16T08:03:58;2.20;99.90
14993;DHT22;7592;51.088;13.732;2024-01-16T08:08:50;2.30;99.90
14993;DHT22;7592;51.088;13.732;2024-01-16T08:13:42;2.30;99.90
14993;DHT22;7592;51.088;13.732;2024-01-16T08:18:34;2.40;99.90
14993;DHT22;7592;51.088;13.732;2024-01-16T08:23:27;2.40;99.90
14993;DHT22;7592;51.088;13.732;2024-01-16T08:28:19;2.40;99.90
14993;DHT22;7592;51.088;13.732;2024-01-16T08:33:14;2.60;99.90
14993;DHT22;7592;51.088;13.732;2024-01-16T08:38:07;2.70;99.90
14993;DHT22;7592;51.088;13.732;2024-01-16T08:42:59;2.90;99.90
14993;DHT22;7592;51.088;13.732;2024-01-16T08:47:51;3.00;99.90
14993;DHT22;7592;51.088;13.732;2024-01-16T08:52:43;3.20;99.90
14993;DHT22;7592;51.088;13.732;2024-01-16T08:57:38;3.20;99.90
14993;DHT22;7592;51.088;13.732;2024-01-16T09:02:30;3.30;99.90
14993;DHT22;7592;51.088;13.732;2024-01-16T09:07:23;3.50;99.90
14993;DHT22;7592;51.088;13.732;2024-01-16T09:12:15;3.90;99.90
14993;DHT22;7592;51.088;13.732;2024-01-16T09:17:07;4.10;99.90
14993;DHT22;7592;51.088;13.732;2024-01-16T09:21:59;4.10;99.90
14993;DHT22;7592;51.088;13.732;2024-01-16T09:26:51;4.30;99.90
14993;DHT22;7592;51.088;13.732;2024-01-16T09:31:44;4.40;99.90
14993;DHT22;7592;51.088;13.732;2024-01-16T09:36:36;4.50;99.90
14993;DHT22;7592;51.088;13.732;2024-01-16T09:41:29;4.70;99.90
14993;DHT22;7592;51.088;13.732;2024-01-16T09:46:26;4.70;99.90
14993;DHT22;7592;51.088;13.732;2024-01-16T09:51:18;5.10;99.90
14993;DHT22;7592;51.088;13.732;2024-01-16T09:56:17;5.70;99.90
14993;DHT22;7592;51.088;13.732;2024-01-16T10:01:12;6.70;99.90
14993;DHT22;7592;51.088;13.732;2024-01-16T10:06:06;7.80;99.90
14993;DHT22;7592;51.088;13.732;2024-01-16T10:10:59;7.90;99.90
14993;DHT22;7592;51.088;13.732;2024-01-16T10:15:52;8.00;99.90
14993;DHT22;7592;51.088;13.732;2024-01-16T10:20:50;8.10;99.90
14993;DHT22;7592;51.088;13.732;2024-01-16T10:25:42;7.90;99.90
14993;DHT22;7592;51.088;13.732;2024-01-16T10:30:35;7.40;99.90
14993;DHT22;7592;51.088;13.732;2024-01-16T10:35:27;7.50;99.90
14993;DHT22;7592;51.088;13.732;2024-01-16T10:40:23;7.50;99.90
14993;DHT22;7592;51.088;13.732;2024-01-16T10:45:19;7.80;99.90
14993;DHT22;7592;51.088;13.732;2024-01-16T10:50:11;8.50;99.90
14993;DHT22;7592;51.088;13.732;2024-01-16T10:55:06;8.90;99.90
14993;DHT22;7592;51.088;13.732;2024-01-16T11:00:04;9.80;99.90
14993;DHT22;7592;51.088;13.732;2024-01-16T11:05:00;10.10;99.10
14993;DHT22;7592;51.088;13.732;2024-01-16T11:09:54;10.00;98.50
14993;DHT22;7592;51.088;13.732;2024-01-16T11:14:49;10.10;97.40
14993;DHT22;7592;51.088;13.732;2024-01-16T11:19:44;9.70;97.40
14993;DHT22;7592;51.088;13.732;2024-01-16T11:25:11;9.30;99.10
14993;DHT22;7592;51.088;13.732;2024-01-16T11:30:07;9.20;99.10
14993;DHT22;7592;51.088;13.732;2024-01-16T11:34:59;9.50;98.30
14993;DHT22;7592;51.088;13.732;2024-01-16T11:50:28;8.30;98.80
14993;DHT22;7592;51.088;13.732;2024-01-16T11:55:29;7.70;99.50
14993;DHT22;7592;51.088;13.732;2024-01-16T12:00:27;7.70;99.90
14993;DHT22;7592;51.088;13.732;2024-01-16T12:05:24;8.10;99.90
14993;DHT22;7592;51.088;13.732;2024-01-16T12:10:17;8.50;99.90
14993;DHT22;7592;51.088;13.732;2024-01-16T12:15:16;8.40;99.90
14993;DHT22;7592;51.088;13.732;2024-01-16T12:20:17;7.90;99.90
14993;DHT22;7592;51.088;13.732;2024-01-16T12:25:09;7.60;99.90
14993;DHT22;7592;51.088;13.732;2024-01-16T12:30:07;7.40;99.90
14993;DHT22;7592;51.088;13.732;2024-01-16T12:34:59;7.20;99.90
14993;DHT22;7592;51.088;13.732;2024-01-16T12:39:52;7.00;99.90
14993;DHT22;7592;51.088;13.732;2024-01-16T12:44:44;6.90;99.90
14993;DHT22;7592;51.088;13.732;2024-01-16T12:49:42;6.80;99.90
14993;DHT22;7592;51.088;13.732;2024-01-16T12:54:37;6.50;99.90
14993;DHT22;7592;51.088;13.732;2024-01-16T12:59:29;6.10;99.90
14993;DHT22;7592;51.088;13.732;2024-01-16T13:04:21;5.80;99.90
14993;DHT22;7592;51.088;13.732;2024-01-16T13:09:14;5.60;99.90
14993;DHT22;7592;51.088;13.732;2024-01-16T13:14:10;5.50;99.90
14993;DHT22;7592;51.088;13.732;2024-01-16T13:19:03;5.50;99.90
14993;DHT22;7592;51.088;13.732;2024-01-16T13:23:57;5.60;99.90
14993;DHT22;7592;51.088;13.732;2024-01-16T13:28:49;5.90;99.90
14993;DHT22;7592;51.088;13.732;2024-01-16T13:33:43;6.00;99.90
14993;DHT22;7592;51.088;13.732;2024-01-16T13:38:35;6.30;99.90
14993;DHT22;7592;51.088;13.732;2024-01-16T13:43:27;6.40;99.90
14993;DHT22;7592;51.088;13.732;2024-01-16T13:48:19;6.40;99.90
14993;DHT22;7592;51.088;13.732;2024-01-16T13:53:13;6.30;99.90
14993;DHT22;7592;51.088;13.732;2024-01-16T13:58:05;6.10;99.90
14993;DHT22;7592;51.088;13.732;2024-01-16T14:02:57;5.90;99.90
14993;DHT22;7592;51.088;13.732;2024-01-16T14:07:51;5.80;99.90
14993;DHT22;7592;51.088;13.732;2024-01-16T14:12:46;5.80;99.90
14993;DHT22;7592;51.088;13.732;2024-01-16T14:17:38;5.70;99.90
14993;DHT22;7592;51.088;13.732;2024-01-16T14:22:31;5.70;99.90
14993;DHT22;7592;51.088;13.732;2024-01-16T14:27:23;5.60;99.90
14993;DHT22;7592;51.088;13.732;2024-01-16T14:32:17;5.40;99.90
14993;DHT22;7592;51.088;13.732;2024-01-16T14:37:09;5.10;99.90
14993;DHT22;7592;51.088;13.732;2024-01-16T14:42:04;4.90;99.90
14993;DHT22;7592;51.088;13.732;2024-01-16T14:46:56;4.70;99.90
14993;DHT22;7592;51.088;13.732;2024-01-16T14:51:49;4.50;99.90
14993;DHT22;7592;51.088;13.732;2024-01-16T14:56:42;4.40;99.90
14993;DHT22;7592;51.088;13.732;2024-01-16T15:01:34;4.10;99.90
14993;DHT22;7592;51.088;13.732;2024-01-16T15:06:26;4.20;99.90
14993;DHT22;7592;51.088;13.732;2024-01-16T15:11:19;4.10;99.90
14993;DHT22;7592;51.088;13.732;2024-01-16T15:16:12;4.00;99.90
14993;DHT22;7592;51.088;13.732;2024-01-16T15:21:08;3.80;99.90
14993;DHT22;7592;51.088;13.732;2024-01-16T15:26:00;3.80;99.90
14993;DHT22;7592;51.088;13.732;2024-01-16T15:30:55;3.70;99.90
14993;DHT22;7592;51.088;13.732;2024-01-16T15:35:47;3.70;99.90
14993;DHT22;7592;51.088;13.732;2024-01-16T15:40:39;3.60;99.90
14993;DHT22;7592;51.088;13.732;2024-01-16T15:45:31;3.60;99.90
14993;DHT22;7592;51.088;13.732;2024-01-16T15:50:23;3.50;99.90
14993;DHT22;7592;51.088;13.732;2024-01-16T15:55:16;3.50;99.90
14993;DHT22;7592;51.088;13.732;2024-01-16T16:00:08;3.40;99.90
14993;DHT22;7592;51.088;13.732;2024-01-16T16:05:04;3.40;99.90
14993;DHT22;7592;51.088;13.732;2024-01-16T16:09:56;3.20;99.90
14993;DHT22;7592;51.088;13.732;2024-01-16T16:14:48;3.20;99.90
14993;DHT22;7592;51.088;13.732;2024-01-16T16:19:40;3.10;99.90
14993;DHT22;7592;51.088;13.732;2024-01-16T16:24:33;3.00;99.90
14993;DHT22;7592;51.088;13.732;2024-01-16T16:29:27;3.00;99.90
14993;DHT22;7592;51.088;13.732;2024-01-16T16:34:19;2.90;99.90
14993;DHT22;7592;51.088;13.732;2024-01-16T16:39:11;2.70;99.90
14993;DHT22;7592;51.088;13.732;2024-01-16T16:44:09;2.70;99.90
14993;DHT22;7592;51.088;13.732;2024-01-16T16:49:01;2.80;99.90
14993;DHT22;7592;51.088;13.732;2024-01-16T16:53:53;2.80;99.90
14993;DHT22;7592;51.088;13.732;2024-01-16T16:58:51;2.90;99.90
14993;DHT22;7592;51.088;13.732;2024-01-16T17:03:44;3.10;99.90
14993;DHT22;7592;51.088;13.732;2024-01-16T17:08:42;3.10;99.90
14993;DHT22;7592;51.088;13.732;2024-01-16T17:13:39;3.00;99.90
14993;DHT22;7592;51.088;13.732;2024-01-16T17:18:32;2.90;99.90
14993;DHT22;7592;51.088;13.732;2024-01-16T17:23:30;2.80;99.90
14993;DHT22;7592;51.088;13.732;2024-01-16T17:28:22;2.60;99.90
14993;DHT22;7592;51.088;13.732;2024-01-16T17:33:16;2.40;99.90
14993;DHT22;7592;51.088;13.732;2024-01-16T17:38:09;2.30;99.90
14993;DHT22;7592;51.088;13.732;2024-01-16T17:43:02;2.20;99.90
14993;DHT22;7592;51.088;13.732;2024-01-16T17:47:55;2.10;99.90
14993;DHT22;7592;51.088;13.732;2024-01-16T17:52:47;1.90;99.90
14993;DHT22;7592;51.088;13.732;2024-01-16T17:57:39;1.90;99.90
14993;DHT22;7592;51.088;13.732;2024-01-16T18:02:33;1.90;99.90
14993;DHT22;7592;51.088;13.732;2024-01-16T18:07:25;1.90;99.90
14993;DHT22;7592;51.088;13.732;2024-01-16T18:12:17;1.80;99.90
14993;DHT22;7592;51.088;13.732;2024-01-16T18:17:10;1.80;99.90
14993;DHT22;7592;51.088;13.732;2024-01-16T18:22:05;1.70;99.90
14993;DHT22;7592;51.088;13.732;2024-01-16T18:26:59;1.60;99.90
14993;DHT22;7592;51.088;13.732;2024-01-16T18:31:52;1.40;99.90
14993;DHT22;7592;51.088;13.732;2024-01-16T18:36:46;1.20;99.90
14993;DHT22;7592;51.088;13.732;2024-01-16T18:41:49;1.10;99.90
14993;DHT22;7592;51.088;13.732;2024-01-16T18:46:42;1.00;99.90
14993;DHT22;7592;51.088;13.732;2024-01-16T18:51:34;0.90;99.90
14993;DHT22;7592;51.088;13.732;2024-01-16T18:56:27;0.70;99.90
14993;DHT22;7592;51.088;13.732;2024-01-16T19:01:19;0.80;99.90
14993;DHT22;7592;51.088;13.732;2024-01-16T19:06:13;0.80;99.90
14993;DHT22;7592;51.088;13.732;2024-01-16T19:11:06;0.60;99.90
14993;DHT22;7592;51.088;13.732;2024-01-16T19:15:58;0.50;99.90
14993;DHT22;7592;51.088;13.732;2024-01-16T19:20:51;0.20;99.90
14993;DHT22;7592;51.088;13.732;2024-01-16T19:25:44;0.00;99.90
14993;DHT22;7592;51.088;13.732;2024-01-16T19:30:37;0.20;99.90
14993;DHT22;7592;51.088;13.732;2024-01-16T19:35:30;0.20;99.90
14993;DHT22;7592;51.088;13.732;2024-01-16T19:40:22;0.40;99.90
14993;DHT22;7592;51.088;13.732;2024-01-16T19:45:16;0.30;99.90
14993;DHT22;7592;51.088;13.732;2024-01-16T19:50:11;0.20;99.90
14993;DHT22;7592;51.088;13.732;2024-01-16T19:55:14;0.00;99.90
14993;DHT22;7592;51.088;13.732;2024-01-16T20:00:08;-0.20;99.90
14993;DHT22;7592;51.088;13.732;2024-01-16T20:05:06;-0.40;99.90
14993;DHT22;7592;51.088;13.732;2024-01-16T20:10:00;-0.50;99.90
14993;DHT22;7592;51.088;13.732;2024-01-16T20:14:54;-0.60;99.90
14993;DHT22;7592;51.088;13.732;2024-01-16T20:19:46;-0.70;99.90
14993;DHT22;7592;51.088;13.732;2024-01-16T20:24:38;-0.80;99.90
14993;DHT22;7592;51.088;13.732;2024-01-16T20:29:31;-0.80;99.90
14993;DHT22;7592;51.088;13.732;2024-01-16T20:34:23;-0.90;99.90
14993;DHT22;7592;51.088;13.732;2024-01-16T20:39:15;-1.00;99.90
14993;DHT22;7592;51.088;13.732;2024-01-16T20:44:07;-1.10;99.90
14993;DHT22;7592;51.088;13.732;2024-01-16T20:49:01;-1.20;99.90
14993;DHT22;7592;51.088;13.732;2024-01-16T20:53:54;-1.10;99.90
14993;DHT22;7592;51.088;13.732;2024-01-16T20:58:46;-1.20;99.90
14993;DHT22;7592;51.088;13.732;2024-01-16T21:03:39;-1.30;99.90
14993;DHT22;7592;51.088;13.732;2024-01-16T21:08:31;-1.30;99.90
14993;DHT22;7592;51.088;13.732;2024-01-16T21:13:24;-1.30;99.90
14993;DHT22;7592;51.088;13.732;2024-01-16T21:18:18;-1.20;99.90
14993;DHT22;7592;51.088;13.732;2024-01-16T21:23:11;-1.30;99.90
14993;DHT22;7592;51.088;13.732;2024-01-16T21:28:04;-1.30;99.90
14993;DHT22;7592;51.088;13.732;2024-01-16T21:32:57;-1.20;99.90
14993;DHT22;7592;51.088;13.732;2024-01-16T21:37:49;-1.30;99.90
14993;DHT22;7592;51.088;13.732;2024-01-16T21:42:42;-1.30;99.90
14993;DHT22;7592;51.088;13.732;2024-01-16T21:47:34;-1.40;99.90
14993;DHT22;7592;51.088;13.732;2024-01-16T21:52:26;-1.40;99.90
14993;DHT22;7592;51.088;13.732;2024-01-16T21:57:18;-1.50;99.90
14993;DHT22;7592;51.088;13.732;2024-01-16T22:02:10;-1.50;99.90
14993;DHT22;7592;51.088;13.732;2024-01-16T22:07:04;-1.60;99.90
14993;DHT22;7592;51.088;13.732;2024-01-16T22:11:56;-1.40;99.90
14993;DHT22;7592;51.088;13.732;2024-01-16T22:16:49;-1.30;99.90
14993;DHT22;7592;51.088;13.732;2024-01-16T22:21:42;-1.20;99.90
14993;DHT22;7592;51.088;13.732;2024-01-16T22:26:34;-1.10;99.90
14993;DHT22;7592;51.088;13.732;2024-01-16T22:31:26;-1.20;99.90
14993;DHT22;7592;51.088;13.732;2024-01-16T22:36:18;-1.10;99.90
14993;DHT22;7592;51.088;13.732;2024-01-16T22:41:10;-1.00;99.90
14993;DHT22;7592;51.088;13.732;2024-01-16T22:46:03;-0.70;99.90
14993;DHT22;7592;51.088;13.732;2024-01-16T22:50:56;-0.60;99.90
14993;DHT22;7592;51.088;13.732;2024-01-16T22:55:48;-0.60;99.90
14993;DHT22;7592;51.088;13.732;2024-01-16T23:00:41;-0.90;99.90
14993;DHT22;7592;51.088;13.732;2024-01-16T23:05:34;-1.00;99.90
14993;DHT22;7592;51.088;13.732;2024-01-16T23:10:26;-1.10;99.90
14993;DHT22;7592;51.088;13.732;2024-01-16T23:15:19;-1.20;99.90
14993;DHT22;7592;51.088;13.732;2024-01-16T23:20:12;-1.30;99.90
14993;DHT22;7592;51.088;13.732;2024-01-16T23:25:08;-1.40;99.90
14993;DHT22;7592;51.088;13.732;2024-01-16T23:30:05;-1.50;99.90
14993;DHT22;7592;51.088;13.732;2024-01-16T23:34:57;-1.50;99.90
14993;DHT22;7592;51.088;13.732;2024-01-16T23:39:51;-1.80;99.90
14993;DHT22;7592;51.088;13.732;2024-01-16T23:44:46;-1.90;99.90
14993;DHT22;7592;51.088;13.732;2024-01-16T23:49:42;-2.00;99.90
14993;DHT22;7592;51.088;13.732;2024-01-16T23:54:34;-1.90;99.90
14993;DHT22;7592;51.088;13.732;2024-01-16T23:59:28;-1.80;99.90
